createdAt,value
2018-05-12T00:00:09.356Z,926.37
2018-05-12T00:00:21.899Z,926.33
2018-05-12T00:00:34.877Z,926.31
2018-05-12T00:00:47.781Z,926.35
2018-05-12T00:01:00.293Z,926.33
2018-05-12T00:01:13.227Z,926.3
2018-05-12T00:01:26.203Z,926.29
2018-05-12T00:01:38.694Z,926.29
2018-05-12T00:01:51.228Z,926.3
2018-05-12T00:02:04.191Z,926.3
2018-05-12T00:02:16.243Z,926.31
2018-05-12T00:02:28.333Z,926.28
2018-05-12T00:02:40.875Z,926.3
2018-05-12T00:02:53.381Z,926.33
2018-05-12T00:03:06.323Z,926.33
2018-05-12T00:03:19.258Z,926.34
2018-05-12T00:03:32.239Z,926.34
2018-05-12T00:03:44.742Z,926.34
2018-05-12T00:03:57.741Z,926.35
2018-05-12T00:04:10.243Z,926.32
2018-05-12T00:04:23.238Z,926.38
2018-05-12T00:04:36.177Z,926.38
2018-05-12T00:04:49.116Z,926.36
2018-05-12T00:05:01.614Z,926.35
2018-05-12T00:05:14.625Z,926.38
2018-05-12T00:05:27.569Z,926.4
2018-05-12T00:05:40.513Z,926.38
2018-05-12T00:05:53.889Z,926.37
2018-05-12T00:06:07.108Z,926.39
2018-05-12T00:06:20.128Z,926.39
2018-05-12T00:06:32.656Z,926.4
2018-05-12T00:06:45.158Z,926.42
2018-05-12T00:06:58.172Z,926.44
2018-05-12T00:07:10.725Z,926.41
2018-05-12T00:07:23.209Z,926.39
2018-05-12T00:07:36.147Z,926.42
2018-05-12T00:07:49.095Z,926.44
2018-05-12T00:08:02.111Z,926.46
2018-05-12T00:08:15.242Z,926.4
2018-05-12T00:08:27.331Z,926.42
2018-05-12T00:08:40.289Z,926.43
2018-05-12T00:08:52.807Z,926.44
2018-05-12T00:09:05.798Z,926.43
2018-05-12T00:09:18.290Z,926.46
2018-05-12T00:09:30.732Z,926.47
2018-05-12T00:09:43.698Z,926.48
2018-05-12T00:09:56.255Z,926.49
2018-05-12T00:10:08.329Z,926.46
2018-05-12T00:10:20.875Z,926.47
2018-05-12T00:10:32.447Z,926.45
2018-05-12T00:10:45.461Z,926.46
2018-05-12T00:10:58.390Z,926.46
2018-05-12T00:11:10.907Z,926.46
2018-05-12T00:11:22.949Z,926.45
2018-05-12T00:11:35.456Z,926.52
2018-05-12T00:11:48.415Z,926.48
2018-05-12T00:12:01.453Z,926.48
2018-05-12T00:12:13.488Z,926.51
2018-05-12T00:12:25.993Z,926.5
2018-05-12T00:12:38.990Z,926.49
2018-05-12T00:12:51.472Z,926.53
2018-05-12T00:13:04.452Z,926.49
2018-05-12T00:13:16.965Z,926.52
2018-05-12T00:13:29.511Z,926.54
2018-05-12T00:13:42.538Z,926.53
2018-05-12T00:13:54.591Z,926.55
2018-05-12T00:14:07.124Z,926.54
2018-05-12T00:14:20.091Z,926.53
2018-05-12T00:14:33.044Z,926.53
2018-05-12T00:14:46.012Z,926.52
2018-05-12T00:14:59.193Z,926.52
2018-05-12T00:15:12.449Z,926.54
2018-05-12T00:15:24.949Z,926.56
2018-05-12T00:15:37.911Z,926.5
2018-05-12T00:15:50.858Z,926.54
2018-05-12T00:16:02.883Z,926.51
2018-05-12T00:16:15.350Z,926.54
2018-05-12T00:16:27.834Z,926.51
2018-05-12T00:16:40.298Z,926.52
2018-05-12T00:16:52.796Z,926.54
2018-05-12T00:17:05.314Z,926.51
2018-05-12T00:17:17.843Z,926.54
2018-05-12T00:17:30.366Z,926.52
2018-05-12T00:17:43.327Z,926.54
2018-05-12T00:17:56.314Z,926.53
2018-05-12T00:18:09.318Z,926.52
2018-05-12T00:18:22.327Z,926.52
2018-05-12T00:18:34.892Z,926.53
2018-05-12T00:18:46.895Z,926.55
2018-05-12T00:18:59.895Z,926.52
2018-05-12T00:19:12.856Z,926.56
2018-05-12T00:19:25.801Z,926.53
2018-05-12T00:19:38.774Z,926.56
2018-05-12T00:19:51.747Z,926.57
2018-05-12T00:20:04.275Z,926.55
2018-05-12T00:20:16.349Z,926.57
2018-05-12T00:20:29.389Z,926.56
2018-05-12T00:20:42.389Z,926.53
2018-05-12T00:20:55.355Z,926.58
2018-05-12T00:21:07.922Z,926.57
2018-05-12T00:21:20.397Z,926.56
2018-05-12T00:21:32.913Z,926.57
2018-05-12T00:21:45.412Z,926.57
2018-05-12T00:21:58.390Z,926.59
2018-05-12T00:22:11.365Z,926.58
2018-05-12T00:22:23.888Z,926.54
2018-05-12T00:22:36.868Z,926.57
2018-05-12T00:22:49.386Z,926.59
2018-05-12T00:23:01.895Z,926.57
2018-05-12T00:23:14.412Z,926.54
2018-05-12T00:23:26.929Z,926.59
2018-05-12T00:23:39.423Z,926.56
2018-05-12T00:23:51.929Z,926.55
2018-05-12T00:24:04.879Z,926.55
2018-05-12T00:24:17.842Z,926.57
2018-05-12T00:24:29.868Z,926.57
2018-05-12T00:24:41.907Z,926.56
2018-05-12T00:24:54.385Z,926.55
2018-05-12T00:25:07.324Z,926.5
2018-05-12T00:25:19.871Z,926.54
2018-05-12T00:25:32.833Z,926.54
2018-05-12T00:25:45.329Z,926.54
2018-05-12T00:25:58.275Z,926.57
2018-05-12T00:26:11.259Z,926.52
2018-05-12T00:26:23.714Z,926.54
2018-05-12T00:26:36.722Z,926.54
2018-05-12T00:26:48.275Z,926.54
2018-05-12T00:27:00.272Z,926.54
2018-05-12T00:27:13.250Z,926.53
2018-05-12T00:27:26.221Z,926.55
2018-05-12T00:27:39.188Z,926.57
2018-05-12T00:27:51.778Z,926.52
2018-05-12T00:28:04.312Z,926.53
2018-05-12T00:28:17.531Z,926.53
2018-05-12T00:28:30.468Z,926.52
2018-05-12T00:28:42.534Z,926.5
2018-05-12T00:28:55.498Z,926.52
2018-05-12T00:29:07.549Z,926.52
2018-05-12T00:29:20.507Z,926.52
2018-05-12T00:29:32.510Z,926.52
2018-05-12T00:29:45.507Z,926.54
2018-05-12T00:29:58.002Z,926.53
2018-05-12T00:30:10.084Z,926.54
2018-05-12T00:30:22.659Z,926.55
2018-05-12T00:30:35.110Z,926.56
2018-05-12T00:30:48.076Z,926.55
2018-05-12T00:31:00.588Z,926.56
2018-05-12T00:31:13.011Z,926.55
2018-05-12T00:31:25.469Z,926.57
2018-05-12T00:31:38.026Z,926.54
2018-05-12T00:31:51.035Z,926.55
2018-05-12T00:32:03.659Z,926.58
2018-05-12T00:32:16.702Z,926.53
2018-05-12T00:32:29.661Z,926.53
2018-05-12T00:32:42.649Z,926.5
2018-05-12T00:32:55.158Z,926.55
2018-05-12T00:33:08.143Z,926.54
2018-05-12T00:33:20.734Z,926.55
2018-05-12T00:33:33.695Z,926.55
2018-05-12T00:33:45.735Z,926.57
2018-05-12T00:33:58.713Z,926.57
2018-05-12T00:34:11.263Z,926.59
2018-05-12T00:34:23.741Z,926.55
2018-05-12T00:34:36.292Z,926.57
2018-05-12T00:34:49.307Z,926.54
2018-05-12T00:35:02.263Z,926.56
2018-05-12T00:35:14.700Z,926.57
2018-05-12T00:35:27.719Z,926.59
2018-05-12T00:35:40.682Z,926.6
2018-05-12T00:35:53.722Z,926.67
2018-05-12T00:36:06.658Z,926.61
2018-05-12T00:36:19.585Z,926.61
2018-05-12T00:36:32.570Z,926.63
2018-05-12T00:36:45.587Z,926.64
2018-05-12T00:36:58.477Z,926.62
2018-05-12T00:37:10.982Z,926.58
2018-05-12T00:37:23.509Z,926.58
2018-05-12T00:37:36.446Z,926.58
2018-05-12T00:37:49.381Z,926.56
2018-05-12T00:38:02.415Z,926.57
2018-05-12T00:38:15.400Z,926.58
2018-05-12T00:38:28.460Z,926.56
2018-05-12T00:38:41.395Z,926.54
2018-05-12T00:38:53.908Z,926.53
2018-05-12T00:39:06.405Z,926.53
2018-05-12T00:39:19.369Z,926.58
2018-05-12T00:39:31.441Z,926.55
2018-05-12T00:39:44.478Z,926.55
2018-05-12T00:39:57.033Z,926.59
2018-05-12T00:40:09.516Z,926.55
2018-05-12T00:40:21.585Z,926.57
2018-05-12T00:40:33.635Z,926.61
2018-05-12T00:40:46.643Z,926.57
2018-05-12T00:40:59.586Z,926.56
2018-05-12T00:41:11.662Z,926.62
2018-05-12T00:41:24.657Z,926.58
2018-05-12T00:41:37.175Z,926.57
2018-05-12T00:41:50.240Z,926.61
2018-05-12T00:42:02.783Z,926.58
2018-05-12T00:42:15.302Z,926.59
2018-05-12T00:42:28.328Z,926.6
2018-05-12T00:42:41.296Z,926.6
2018-05-12T00:42:54.418Z,926.6
2018-05-12T00:43:07.555Z,926.6
2018-05-12T00:43:20.088Z,926.64
2018-05-12T00:43:33.057Z,926.62
2018-05-12T00:43:45.996Z,926.63
2018-05-12T00:43:58.550Z,926.63
2018-05-12T00:44:11.486Z,926.66
2018-05-12T00:44:23.945Z,926.63
2018-05-12T00:44:36.464Z,926.66
2018-05-12T00:44:49.440Z,926.68
2018-05-12T00:45:02.380Z,926.62
2018-05-12T00:45:14.476Z,926.63
2018-05-12T00:45:27.478Z,926.67
2018-05-12T00:45:40.447Z,926.65
2018-05-12T00:45:53.412Z,926.65
2018-05-12T00:46:05.406Z,926.65
2018-05-12T00:46:17.922Z,926.67
2018-05-12T00:46:30.399Z,926.66
2018-05-12T00:46:43.389Z,926.64
2018-05-12T00:46:56.378Z,926.64
2018-05-12T00:47:09.387Z,926.67
2018-05-12T00:47:22.423Z,926.66
2018-05-12T00:47:34.959Z,926.68
2018-05-12T00:47:47.995Z,926.68
2018-05-12T00:48:00.522Z,926.65
2018-05-12T00:48:13.504Z,926.67
2018-05-12T00:48:26.507Z,926.66
2018-05-12T00:48:39.025Z,926.65
2018-05-12T00:48:51.968Z,926.64
2018-05-12T00:49:04.489Z,926.7
2018-05-12T00:49:17.499Z,926.69
2018-05-12T00:49:30.506Z,926.68
2018-05-12T00:49:43.004Z,926.69
2018-05-12T00:49:55.978Z,926.72
2018-05-12T00:50:08.937Z,926.66
2018-05-12T00:50:21.908Z,926.67
2018-05-12T00:50:34.874Z,926.67
2018-05-12T00:50:45.948Z,926.69
2018-05-12T00:50:58.881Z,926.69
2018-05-12T00:51:11.392Z,926.68
2018-05-12T00:51:23.932Z,926.69
2018-05-12T00:51:35.972Z,926.7
2018-05-12T00:51:48.052Z,926.68
2018-05-12T00:52:00.980Z,926.68
2018-05-12T00:52:13.952Z,926.69
2018-05-12T00:52:25.993Z,926.7
2018-05-12T00:52:38.503Z,926.69
2018-05-12T00:52:51.017Z,926.67
2018-05-12T00:53:04.022Z,926.71
2018-05-12T00:53:16.949Z,926.67
2018-05-12T00:53:29.891Z,926.65
2018-05-12T00:53:42.456Z,926.69
2018-05-12T00:53:54.475Z,926.67
2018-05-12T00:54:07.021Z,926.68
2018-05-12T00:54:19.922Z,926.69
2018-05-12T00:54:32.437Z,926.7
2018-05-12T00:54:45.328Z,926.71
2018-05-12T00:54:57.807Z,926.71
2018-05-12T00:55:10.794Z,926.73
2018-05-12T00:55:23.716Z,926.74
2018-05-12T00:55:36.614Z,926.73
2018-05-12T00:55:49.726Z,926.76
2018-05-12T00:56:02.240Z,926.77
2018-05-12T00:56:14.259Z,926.73
2018-05-12T00:56:27.259Z,926.78
2018-05-12T00:56:40.256Z,926.75
2018-05-12T00:56:52.328Z,926.73
2018-05-12T00:57:04.885Z,926.76
2018-05-12T00:57:17.409Z,926.79
2018-05-12T00:57:30.343Z,926.72
2018-05-12T00:57:43.267Z,926.73
2018-05-12T00:57:56.170Z,926.76
2018-05-12T00:58:09.130Z,926.75
2018-05-12T00:58:22.103Z,926.76
2018-05-12T00:58:35.061Z,926.74
2018-05-12T00:58:48.063Z,926.77
2018-05-12T00:59:00.578Z,926.78
2018-05-12T00:59:13.055Z,926.74
2018-05-12T00:59:25.530Z,926.78
2018-05-12T00:59:38.067Z,926.78
2018-05-12T00:59:51.065Z,926.8
2018-05-12T01:00:03.570Z,926.8
2018-05-12T01:00:16.513Z,926.8
2018-05-12T01:00:29.466Z,926.79
2018-05-12T01:00:41.951Z,926.83
2018-05-12T01:00:53.985Z,926.82
2018-05-12T01:01:06.957Z,926.8
2018-05-12T01:01:19.943Z,926.8
2018-05-12T01:01:32.024Z,926.81
2018-05-12T01:01:44.563Z,926.82
2018-05-12T01:01:57.544Z,926.81
2018-05-12T01:02:10.610Z,926.82
2018-05-12T01:02:23.615Z,926.81
2018-05-12T01:02:35.671Z,926.78
2018-05-12T01:02:48.630Z,926.81
2018-05-12T01:03:01.125Z,926.85
2018-05-12T01:03:13.697Z,926.85
2018-05-12T01:03:26.168Z,926.86
2018-05-12T01:03:39.116Z,926.84
2018-05-12T01:03:52.111Z,926.85
2018-05-12T01:04:04.593Z,926.85
2018-05-12T01:04:17.591Z,926.86
2018-05-12T01:04:29.594Z,926.86
2018-05-12T01:04:42.129Z,926.87
2018-05-12T01:04:55.140Z,926.86
2018-05-12T01:05:08.082Z,926.86
2018-05-12T01:05:21.098Z,926.87
2018-05-12T01:05:34.073Z,926.9
2018-05-12T01:05:46.615Z,926.9
2018-05-12T01:05:59.544Z,926.89
2018-05-12T01:06:12.035Z,926.92
2018-05-12T01:06:24.562Z,926.9
2018-05-12T01:06:37.567Z,926.91
2018-05-12T01:06:50.579Z,926.9
2018-05-12T01:07:03.148Z,926.9
2018-05-12T01:07:15.688Z,926.89
2018-05-12T01:07:28.204Z,926.9
2018-05-12T01:07:40.709Z,926.9
2018-05-12T01:07:53.174Z,926.9
2018-05-12T01:08:05.246Z,926.89
2018-05-12T01:08:17.748Z,926.94
2018-05-12T01:08:30.737Z,926.91
2018-05-12T01:08:43.825Z,926.9
2018-05-12T01:08:56.865Z,926.91
2018-05-12T01:09:08.450Z,926.93
2018-05-12T01:09:21.408Z,926.88
2018-05-12T01:09:33.906Z,926.91
2018-05-12T01:09:46.826Z,926.9
2018-05-12T01:09:59.790Z,926.92
2018-05-12T01:10:12.301Z,926.91
2018-05-12T01:10:24.356Z,926.87
2018-05-12T01:10:36.907Z,926.88
2018-05-12T01:10:49.437Z,926.86
2018-05-12T01:11:01.954Z,926.87
2018-05-12T01:11:14.946Z,926.84
2018-05-12T01:11:27.444Z,926.85
2018-05-12T01:11:39.958Z,926.86
2018-05-12T01:11:52.401Z,926.84
2018-05-12T01:12:05.434Z,926.82
2018-05-12T01:12:17.953Z,926.86
2018-05-12T01:12:30.976Z,926.88
2018-05-12T01:12:43.926Z,926.85
2018-05-12T01:12:56.949Z,926.86
2018-05-12T01:13:09.958Z,926.82
2018-05-12T01:13:21.993Z,926.82
2018-05-12T01:13:35.281Z,926.83
2018-05-12T01:13:48.373Z,926.85
2018-05-12T01:14:00.887Z,926.84
2018-05-12T01:14:13.443Z,926.83
2018-05-12T01:14:25.925Z,926.81
2018-05-12T01:14:37.918Z,926.87
2018-05-12T01:14:50.006Z,926.85
2018-05-12T01:15:02.478Z,926.84
2018-05-12T01:15:14.574Z,926.81
2018-05-12T01:15:26.657Z,926.82
2018-05-12T01:15:39.692Z,926.82
2018-05-12T01:15:52.610Z,926.85
2018-05-12T01:16:05.121Z,926.81
2018-05-12T01:16:18.125Z,926.82
2018-05-12T01:16:30.658Z,926.84
2018-05-12T01:16:43.637Z,926.8
2018-05-12T01:16:56.612Z,926.79
2018-05-12T01:17:09.078Z,926.86
2018-05-12T01:17:22.027Z,926.84
2018-05-12T01:17:34.536Z,926.82
2018-05-12T01:17:47.498Z,926.8
2018-05-12T01:18:00.059Z,926.81
2018-05-12T01:18:12.585Z,926.82
2018-05-12T01:18:25.098Z,926.83
2018-05-12T01:18:37.574Z,926.81
2018-05-12T01:18:50.575Z,926.78
2018-05-12T01:19:03.100Z,926.76
2018-05-12T01:19:16.057Z,926.78
2018-05-12T01:19:29.026Z,926.81
2018-05-12T01:19:41.951Z,926.77
2018-05-12T01:19:54.428Z,926.79
2018-05-12T01:20:07.405Z,926.77
2018-05-12T01:20:19.870Z,926.78
2018-05-12T01:20:31.935Z,926.77
2018-05-12T01:20:44.884Z,926.76
2018-05-12T01:20:57.888Z,926.77
2018-05-12T01:21:10.899Z,926.78
2018-05-12T01:21:23.910Z,926.75
2018-05-12T01:21:36.835Z,926.77
2018-05-12T01:21:49.272Z,926.76
2018-05-12T01:22:01.819Z,926.75
2018-05-12T01:22:12.939Z,926.75
2018-05-12T01:22:25.004Z,926.78
2018-05-12T01:22:37.498Z,926.76
2018-05-12T01:22:50.451Z,926.75
2018-05-12T01:23:03.035Z,926.74
2018-05-12T01:23:15.068Z,926.73
2018-05-12T01:23:27.593Z,926.76
2018-05-12T01:23:41.035Z,926.76
2018-05-12T01:23:54.053Z,926.72
2018-05-12T01:24:06.572Z,926.74
2018-05-12T01:24:18.630Z,926.73
2018-05-12T01:24:31.150Z,926.74
2018-05-12T01:24:44.125Z,926.77
2018-05-12T01:24:57.073Z,926.73
2018-05-12T01:25:10.073Z,926.71
2018-05-12T01:25:23.044Z,926.7
2018-05-12T01:25:35.509Z,926.7
2018-05-12T01:25:48.510Z,926.68
2018-05-12T01:26:01.518Z,926.71
2018-05-12T01:26:14.501Z,926.68
2018-05-12T01:26:27.504Z,926.72
2018-05-12T01:26:40.485Z,926.7
2018-05-12T01:26:52.992Z,926.71
2018-05-12T01:27:05.478Z,926.71
2018-05-12T01:27:18.477Z,926.73
2018-05-12T01:27:31.017Z,926.71
2018-05-12T01:27:43.518Z,926.73
2018-05-12T01:27:55.979Z,926.71
2018-05-12T01:28:08.490Z,926.73
2018-05-12T01:28:21.461Z,926.71
2018-05-12T01:28:34.441Z,926.77
2018-05-12T01:28:47.611Z,926.74
2018-05-12T01:29:00.559Z,926.71
2018-05-12T01:29:12.165Z,926.78
2018-05-12T01:29:25.157Z,926.78
2018-05-12T01:29:37.652Z,926.76
2018-05-12T01:29:50.098Z,926.76
2018-05-12T01:30:03.077Z,926.76
2018-05-12T01:30:15.100Z,926.78
2018-05-12T01:30:27.203Z,926.81
2018-05-12T01:30:39.725Z,926.79
2018-05-12T01:30:52.709Z,926.76
2018-05-12T01:31:05.254Z,926.81
2018-05-12T01:31:17.770Z,926.79
2018-05-12T01:31:29.822Z,926.79
2018-05-12T01:31:42.863Z,926.79
2018-05-12T01:31:55.366Z,926.79
2018-05-12T01:32:08.463Z,926.82
2018-05-12T01:32:20.940Z,926.81
2018-05-12T01:32:33.446Z,926.8
2018-05-12T01:32:46.017Z,926.8
2018-05-12T01:32:58.484Z,926.86
2018-05-12T01:33:11.002Z,926.82
2018-05-12T01:33:23.932Z,926.85
2018-05-12T01:33:36.911Z,926.84
2018-05-12T01:33:49.961Z,926.84
2018-05-12T01:34:02.903Z,926.87
2018-05-12T01:34:15.830Z,926.84
2018-05-12T01:34:28.388Z,926.86
2018-05-12T01:34:41.388Z,926.86
2018-05-12T01:34:53.423Z,926.87
2018-05-12T01:35:06.354Z,926.9
2018-05-12T01:35:18.870Z,926.89
2018-05-12T01:35:31.808Z,926.86
2018-05-12T01:35:44.804Z,926.91
2018-05-12T01:35:57.306Z,926.9
2018-05-12T01:36:10.306Z,926.92
2018-05-12T01:36:22.829Z,926.88
2018-05-12T01:36:35.291Z,926.9
2018-05-12T01:36:48.253Z,926.88
2018-05-12T01:37:00.770Z,926.88
2018-05-12T01:37:13.256Z,926.91
2018-05-12T01:37:26.211Z,926.9
2018-05-12T01:37:38.239Z,926.91
2018-05-12T01:37:50.740Z,926.9
2018-05-12T01:38:03.226Z,926.94
2018-05-12T01:38:15.713Z,926.92
2018-05-12T01:38:28.683Z,926.94
2018-05-12T01:38:41.743Z,926.9
2018-05-12T01:38:54.884Z,926.95
2018-05-12T01:39:07.418Z,926.94
2018-05-12T01:39:20.341Z,926.97
2018-05-12T01:39:32.856Z,926.95
2018-05-12T01:39:45.860Z,926.94
2018-05-12T01:39:58.783Z,926.97
2018-05-12T01:40:11.283Z,926.96
2018-05-12T01:40:23.392Z,926.99
2018-05-12T01:40:36.391Z,927
2018-05-12T01:40:49.372Z,927.01
2018-05-12T01:41:02.372Z,926.98
2018-05-12T01:41:14.881Z,926.98
2018-05-12T01:41:26.910Z,926.97
2018-05-12T01:41:39.943Z,926.97
2018-05-12T01:41:52.458Z,926.98
2018-05-12T01:42:05.381Z,927.02
2018-05-12T01:42:17.905Z,926.99
2018-05-12T01:42:30.864Z,927.01
2018-05-12T01:42:43.349Z,927.03
2018-05-12T01:42:55.913Z,927.02
2018-05-12T01:43:08.440Z,927.05
2018-05-12T01:43:20.933Z,927.04
2018-05-12T01:43:33.459Z,927.06
2018-05-12T01:43:45.980Z,927.04
2018-05-12T01:43:58.477Z,927.05
2018-05-12T01:44:11.405Z,927.05
2018-05-12T01:44:23.918Z,927.07
2018-05-12T01:44:36.948Z,927.04
2018-05-12T01:44:49.921Z,927.03
2018-05-12T01:45:02.864Z,927.03
2018-05-12T01:45:14.929Z,927.06
2018-05-12T01:45:27.981Z,927.03
2018-05-12T01:45:40.984Z,927.04
2018-05-12T01:45:53.018Z,927.06
2018-05-12T01:46:05.540Z,927.04
2018-05-12T01:46:18.535Z,927.07
2018-05-12T01:46:31.536Z,927.08
2018-05-12T01:46:44.502Z,927.06
2018-05-12T01:46:57.024Z,927.05
2018-05-12T01:47:09.979Z,927.05
2018-05-12T01:47:22.953Z,927.06
2018-05-12T01:47:35.948Z,927.06
2018-05-12T01:47:48.471Z,927.06
2018-05-12T01:48:01.444Z,927.07
2018-05-12T01:48:14.434Z,927.03
2018-05-12T01:48:27.420Z,927.05
2018-05-12T01:48:39.953Z,927.04
2018-05-12T01:48:51.980Z,927.06
2018-05-12T01:49:04.032Z,927.03
2018-05-12T01:49:16.961Z,927.05
2018-05-12T01:49:29.960Z,927.06
2018-05-12T01:49:41.982Z,927.06
2018-05-12T01:49:54.975Z,927.04
2018-05-12T01:50:07.473Z,927.02
2018-05-12T01:50:19.975Z,927.02
2018-05-12T01:50:32.512Z,927.05
2018-05-12T01:50:45.498Z,927.05
2018-05-12T01:50:58.051Z,927.05
2018-05-12T01:51:10.560Z,927.03
2018-05-12T01:51:23.603Z,927.01
2018-05-12T01:51:36.065Z,927.03
2018-05-12T01:51:49.111Z,927
2018-05-12T01:52:02.069Z,927.03
2018-05-12T01:52:14.592Z,927.01
2018-05-12T01:52:27.589Z,927.01
2018-05-12T01:52:39.618Z,926.99
2018-05-12T01:52:52.160Z,926.99
2018-05-12T01:53:04.732Z,926.99
2018-05-12T01:53:17.303Z,926.98
2018-05-12T01:53:29.794Z,926.97
2018-05-12T01:53:42.796Z,926.96
2018-05-12T01:53:55.785Z,926.98
2018-05-12T01:54:08.270Z,926.95
2018-05-12T01:54:21.208Z,926.98
2018-05-12T01:54:33.754Z,926.95
2018-05-12T01:54:46.762Z,926.91
2018-05-12T01:54:59.735Z,926.93
2018-05-12T01:55:12.363Z,926.9
2018-05-12T01:55:24.385Z,926.94
2018-05-12T01:55:37.342Z,926.91
2018-05-12T01:55:49.825Z,926.9
2018-05-12T01:56:02.375Z,926.95
2018-05-12T01:56:14.476Z,926.92
2018-05-12T01:56:26.975Z,926.96
2018-05-12T01:56:39.456Z,926.93
2018-05-12T01:56:52.444Z,926.9
2018-05-12T01:57:04.972Z,926.93
2018-05-12T01:57:17.519Z,926.92
2018-05-12T01:57:30.432Z,926.92
2018-05-12T01:57:43.433Z,926.93
2018-05-12T01:57:55.476Z,926.91
2018-05-12T01:58:07.977Z,926.88
2018-05-12T01:58:19.984Z,926.92
2018-05-12T01:58:32.494Z,926.92
2018-05-12T01:58:45.479Z,926.95
2018-05-12T01:58:58.672Z,926.94
2018-05-12T01:59:11.180Z,926.93
2018-05-12T01:59:24.125Z,926.94
2018-05-12T01:59:37.087Z,926.94
2018-05-12T01:59:50.046Z,926.94
2018-05-12T02:00:02.578Z,926.9
2018-05-12T02:00:14.595Z,926.96
2018-05-12T02:00:26.706Z,926.96
2018-05-12T02:00:39.155Z,926.94
2018-05-12T02:00:51.227Z,926.93
2018-05-12T02:01:04.241Z,926.97
2018-05-12T02:01:16.293Z,926.95
2018-05-12T02:01:29.265Z,926.98
2018-05-12T02:01:41.747Z,926.94
2018-05-12T02:01:54.264Z,926.95
2018-05-12T02:02:07.211Z,926.96
2018-05-12T02:02:19.743Z,926.96
2018-05-12T02:02:31.819Z,926.97
2018-05-12T02:02:44.333Z,926.95
2018-05-12T02:02:57.357Z,926.96
2018-05-12T02:03:08.927Z,926.96
2018-05-12T02:03:20.993Z,926.95
2018-05-12T02:03:33.033Z,926.95
2018-05-12T02:03:45.612Z,926.94
2018-05-12T02:03:58.139Z,926.95
2018-05-12T02:04:11.093Z,926.95
2018-05-12T02:04:23.593Z,926.97
2018-05-12T02:04:36.184Z,926.97
2018-05-12T02:04:48.712Z,926.94
2018-05-12T02:05:01.645Z,926.92
2018-05-12T02:05:14.127Z,926.93
2018-05-12T02:05:26.210Z,926.96
2018-05-12T02:05:39.139Z,926.99
2018-05-12T02:05:52.112Z,926.99
2018-05-12T02:06:04.591Z,926.99
2018-05-12T02:06:17.091Z,926.95
2018-05-12T02:06:30.069Z,927.02
2018-05-12T02:06:42.585Z,926.98
2018-05-12T02:06:55.107Z,926.97
2018-05-12T02:07:08.083Z,926.99
2018-05-12T02:07:20.975Z,927
2018-05-12T02:07:33.493Z,926.98
2018-05-12T02:07:45.990Z,926.97
2018-05-12T02:07:59.016Z,927.01
2018-05-12T02:08:11.163Z,927
2018-05-12T02:08:23.233Z,927
2018-05-12T02:08:35.689Z,927
2018-05-12T02:08:48.657Z,926.95
2018-05-12T02:09:01.123Z,926.98
2018-05-12T02:09:13.610Z,926.99
2018-05-12T02:09:25.651Z,926.99
2018-05-12T02:09:37.674Z,926.97
2018-05-12T02:09:50.679Z,927
2018-05-12T02:10:02.690Z,926.97
2018-05-12T02:10:14.681Z,926.98
2018-05-12T02:10:27.641Z,926.96
2018-05-12T02:10:40.659Z,926.98
2018-05-12T02:10:52.683Z,927.01
2018-05-12T02:11:04.744Z,927.01
2018-05-12T02:11:17.699Z,926.95
2018-05-12T02:11:29.728Z,926.96
2018-05-12T02:11:42.189Z,926.97
2018-05-12T02:11:55.231Z,926.98
2018-05-12T02:12:07.777Z,926.98
2018-05-12T02:12:19.382Z,927.01
2018-05-12T02:12:31.881Z,926.96
2018-05-12T02:12:43.945Z,926.93
2018-05-12T02:12:56.900Z,926.95
2018-05-12T02:13:09.903Z,926.94
2018-05-12T02:13:22.457Z,926.95
2018-05-12T02:13:35.464Z,926.95
2018-05-12T02:13:47.980Z,926.94
2018-05-12T02:14:00.052Z,926.97
2018-05-12T02:14:12.142Z,926.91
2018-05-12T02:14:25.104Z,926.94
2018-05-12T02:14:37.598Z,926.97
2018-05-12T02:14:50.554Z,926.95
2018-05-12T02:15:02.975Z,926.95
2018-05-12T02:15:15.533Z,926.96
2018-05-12T02:15:28.111Z,926.97
2018-05-12T02:15:40.645Z,926.94
2018-05-12T02:15:53.138Z,926.95
2018-05-12T02:16:05.667Z,926.96
2018-05-12T02:16:18.131Z,926.98
2018-05-12T02:16:31.164Z,926.98
2018-05-12T02:16:43.627Z,926.97
2018-05-12T02:16:56.633Z,926.99
2018-05-12T02:17:09.130Z,926.94
2018-05-12T02:17:21.640Z,926.97
2018-05-12T02:17:34.146Z,927
2018-05-12T02:17:47.099Z,926.97
2018-05-12T02:18:00.025Z,926.96
2018-05-12T02:18:12.573Z,926.97
2018-05-12T02:18:25.541Z,926.98
2018-05-12T02:18:37.563Z,926.99
2018-05-12T02:18:50.547Z,926.98
2018-05-12T02:19:02.588Z,926.99
2018-05-12T02:19:15.583Z,926.98
2018-05-12T02:19:28.078Z,927.01
2018-05-12T02:19:40.098Z,927.02
2018-05-12T02:19:53.076Z,927.02
2018-05-12T02:20:05.124Z,927
2018-05-12T02:20:18.092Z,927.01
2018-05-12T02:20:31.050Z,927.02
2018-05-12T02:20:44.041Z,927.03
2018-05-12T02:20:56.995Z,927
2018-05-12T02:21:09.559Z,927.04
2018-05-12T02:21:22.539Z,927.05
2018-05-12T02:21:35.541Z,927.01
2018-05-12T02:21:48.571Z,926.97
2018-05-12T02:22:01.593Z,927.02
2018-05-12T02:22:13.632Z,926.99
2018-05-12T02:22:25.627Z,927
2018-05-12T02:22:38.612Z,927.04
2018-05-12T02:22:51.037Z,926.97
2018-05-12T02:23:03.581Z,927.01
2018-05-12T02:23:16.571Z,926.97
2018-05-12T02:23:29.579Z,926.99
2018-05-12T02:23:42.112Z,926.99
2018-05-12T02:23:54.681Z,927
2018-05-12T02:24:07.710Z,926.95
2018-05-12T02:24:20.289Z,926.98
2018-05-12T02:24:32.824Z,926.99
2018-05-12T02:24:45.828Z,926.95
2018-05-12T02:24:58.830Z,926.96
2018-05-12T02:25:10.425Z,926.98
2018-05-12T02:25:22.957Z,926.98
2018-05-12T02:25:35.457Z,926.96
2018-05-12T02:25:47.971Z,926.99
2018-05-12T02:26:00.916Z,926.95
2018-05-12T02:26:13.880Z,926.97
2018-05-12T02:26:26.916Z,926.96
2018-05-12T02:26:38.919Z,926.98
2018-05-12T02:26:51.472Z,926.96
2018-05-12T02:27:04.419Z,926.97
2018-05-12T02:27:17.378Z,926.99
2018-05-12T02:27:29.881Z,927
2018-05-12T02:27:42.856Z,926.99
2018-05-12T02:27:55.425Z,927.01
2018-05-12T02:28:07.486Z,926.96
2018-05-12T02:28:20.433Z,926.99
2018-05-12T02:28:33.413Z,926.97
2018-05-12T02:28:46.415Z,926.99
2018-05-12T02:28:58.888Z,926.98
2018-05-12T02:29:11.074Z,927
2018-05-12T02:29:24.025Z,927.02
2018-05-12T02:29:36.588Z,927
2018-05-12T02:29:49.577Z,927.01
2018-05-12T02:30:02.589Z,927
2018-05-12T02:30:15.186Z,927.01
2018-05-12T02:30:27.566Z,926.99
2018-05-12T02:30:40.886Z,927.01
2018-05-12T02:30:53.393Z,927.01
2018-05-12T02:31:06.383Z,927.03
2018-05-12T02:31:18.500Z,927
2018-05-12T02:31:31.558Z,926.98
2018-05-12T02:31:44.038Z,926.99
2018-05-12T02:31:56.583Z,926.97
2018-05-12T02:32:09.523Z,927.03
2018-05-12T02:32:22.498Z,926.98
2018-05-12T02:32:35.448Z,926.99
2018-05-12T02:32:47.882Z,926.99
2018-05-12T02:33:00.439Z,927.01
2018-05-12T02:33:13.407Z,927.01
2018-05-12T02:33:25.951Z,927
2018-05-12T02:33:38.890Z,926.99
2018-05-12T02:33:50.928Z,926.98
2018-05-12T02:34:03.434Z,926.98
2018-05-12T02:34:16.375Z,926.98
2018-05-12T02:34:28.868Z,926.97
2018-05-12T02:34:40.947Z,926.99
2018-05-12T02:34:54.005Z,927
2018-05-12T02:35:07.022Z,926.96
2018-05-12T02:35:19.071Z,926.96
2018-05-12T02:35:32.040Z,926.95
2018-05-12T02:35:45.023Z,926.98
2018-05-12T02:35:57.513Z,926.96
2018-05-12T02:36:10.501Z,926.97
2018-05-12T02:36:23.058Z,926.98
2018-05-12T02:36:35.635Z,926.96
2018-05-12T02:36:48.164Z,926.97
2018-05-12T02:37:01.158Z,926.95
2018-05-12T02:37:14.207Z,926.97
2018-05-12T02:37:26.758Z,926.96
2018-05-12T02:37:39.739Z,926.92
2018-05-12T02:37:51.794Z,926.93
2018-05-12T02:38:03.825Z,926.97
2018-05-12T02:38:16.371Z,926.94
2018-05-12T02:38:29.478Z,926.94
2018-05-12T02:38:42.470Z,926.95